Terminal Aerodrome Forecast
Issued by NWS

Home | Current Version | Previous Version | Text Only | Print | Product List | Glossary On
Versions: 1 2 3 4 5 6 7 8 9 10 11 12 13 14 15 16
000
FTUS46 KMTR 061139
TAFSTS
TAF
KSTS 061139Z 0612/0712 00000KT P6SM FEW090 SCT100
     FM061600 18004KT P6SM -RA BKN020 OVC050
     FM062200 16007KT P6SM VCSH BKN025
     FM070300 15004KT P6SM BKN020
     FM070600 VRB03KT P6SM BKN015=

USA.gov is the U.S. government's official web portal to all federal, state and local government web resources and services.